createdAt,value
2019-03-08T00:02:19.228Z,7.30
2019-03-08T00:04:47.649Z,7.20
2019-03-08T00:07:16.066Z,7.20
2019-03-08T00:09:44.490Z,7.20
2019-03-08T00:12:13.082Z,7.20
2019-03-08T00:14:41.509Z,7.20
2019-03-08T00:17:09.923Z,7.20
2019-03-08T00:19:38.346Z,7.20
2019-03-08T00:22:08.628Z,7.10
2019-03-08T00:24:37.152Z,7.20
2019-03-08T00:27:05.623Z,7.10
2019-03-08T00:29:34.062Z,7.10
2019-03-08T00:32:02.555Z,7.20
2019-03-08T00:34:30.973Z,7.10
2019-03-08T00:36:59.494Z,7.10
2019-03-08T00:39:27.935Z,7.10
2019-03-08T00:41:56.413Z,7.10
2019-03-08T00:44:24.826Z,7.10
2019-03-08T00:46:53.252Z,7.10
2019-03-08T00:49:21.664Z,7.00
2019-03-08T00:51:50.090Z,7.10
2019-03-08T00:54:18.556Z,7.10
2019-03-08T00:56:47.210Z,7.10
2019-03-08T00:59:15.630Z,7.10
2019-03-08T01:01:44.062Z,7.10
2019-03-08T01:04:12.478Z,7.10
2019-03-08T01:06:40.901Z,7.10
2019-03-08T01:09:09.446Z,7.00
2019-03-08T01:11:38.159Z,7.10
2019-03-08T01:14:06.598Z,7.10
2019-03-08T01:16:35.035Z,7.20
2019-03-08T01:19:03.475Z,7.20
2019-03-08T01:21:31.958Z,7.10
2019-03-08T01:24:00.370Z,7.20
2019-03-08T01:26:28.969Z,7.20
2019-03-08T01:28:58.051Z,7.10
2019-03-08T01:31:26.477Z,7.20
2019-03-08T01:33:54.890Z,7.20
2019-03-08T01:36:23.314Z,7.20
2019-03-08T01:38:51.721Z,7.20
2019-03-08T01:41:20.386Z,7.20
2019-03-08T01:43:48.807Z,7.20
2019-03-08T01:46:17.242Z,7.10
2019-03-08T01:48:45.657Z,7.10
2019-03-08T01:51:14.070Z,7.20
2019-03-08T01:53:42.495Z,7.10
2019-03-08T01:56:11.088Z,7.10
2019-03-08T01:58:39.507Z,7.10
2019-03-08T02:01:08.090Z,7.20
2019-03-08T02:03:36.582Z,7.20
2019-03-08T02:06:05.000Z,7.30
2019-03-08T02:08:33.423Z,7.20
2019-03-08T02:11:02.019Z,7.20
2019-03-08T02:13:30.438Z,7.20
2019-03-08T02:15:58.854Z,7.30
2019-03-08T02:18:27.278Z,7.30
2019-03-08T02:20:55.693Z,7.20
2019-03-08T02:23:24.128Z,7.30
2019-03-08T02:25:52.818Z,7.30
2019-03-08T02:28:21.244Z,7.40
2019-03-08T02:30:49.661Z,7.40
2019-03-08T02:33:18.093Z,7.40
2019-03-08T02:35:46.499Z,7.40
2019-03-08T02:38:14.922Z,7.40
2019-03-08T02:40:43.610Z,7.40
2019-03-08T02:43:14.185Z,7.40
2019-03-08T02:45:42.602Z,7.50
2019-03-08T02:48:11.042Z,7.40
2019-03-08T02:50:39.523Z,7.40
2019-03-08T02:53:07.931Z,7.40
2019-03-08T02:55:36.362Z,7.40
2019-03-08T02:58:04.969Z,7.40
2019-03-08T03:00:36.466Z,7.40
2019-03-08T03:03:04.970Z,7.40
2019-03-08T03:05:33.401Z,7.40
2019-03-08T03:08:02.085Z,7.40
2019-03-08T03:10:30.513Z,7.40
2019-03-08T03:12:58.939Z,7.30
2019-03-08T03:15:27.390Z,7.40
2019-03-08T03:17:55.809Z,7.40
2019-03-08T03:20:24.299Z,7.40
2019-03-08T03:22:53.000Z,7.30
2019-03-08T03:25:21.425Z,7.40
2019-03-08T03:27:49.861Z,7.40
2019-03-08T03:30:19.730Z,7.30
2019-03-08T03:32:48.151Z,7.40
2019-03-08T03:35:16.670Z,7.40
2019-03-08T03:37:45.427Z,7.40
2019-03-08T03:40:17.648Z,7.40
2019-03-08T03:42:46.206Z,7.40
2019-03-08T03:45:17.053Z,7.30
2019-03-08T03:47:45.528Z,7.30
2019-03-08T03:50:14.865Z,7.30
2019-03-08T03:52:43.418Z,7.30
2019-03-08T03:55:16.828Z,7.20
2019-03-08T03:57:45.372Z,7.20
2019-03-08T04:00:21.613Z,7.20
2019-03-08T04:02:50.087Z,7.20
2019-03-08T04:05:18.681Z,7.20
2019-03-08T04:07:47.252Z,7.10
2019-03-08T04:10:17.584Z,7.20
2019-03-08T04:12:46.056Z,7.10
2019-03-08T04:15:16.023Z,7.20
2019-03-08T04:17:44.813Z,7.10
2019-03-08T04:20:17.816Z,7.20
2019-03-08T04:22:46.303Z,7.20
2019-03-08T04:25:15.049Z,7.20
2019-03-08T04:27:43.524Z,7.20
2019-03-08T04:30:16.639Z,7.10
2019-03-08T04:32:45.048Z,7.10
2019-03-08T04:35:13.459Z,7.10
2019-03-08T04:37:41.944Z,7.00
2019-03-08T04:40:11.780Z,7.00
2019-03-08T04:42:40.202Z,7.00
2019-03-08T04:45:13.047Z,7.00
2019-03-08T04:47:41.536Z,7.00
2019-03-08T04:50:12.860Z,6.90
2019-03-08T04:52:41.272Z,6.80
2019-03-08T04:55:16.935Z,6.90
2019-03-08T04:57:45.626Z,6.90
2019-03-08T05:00:18.377Z,6.80
2019-03-08T05:02:46.787Z,6.80
2019-03-08T05:05:15.265Z,6.80
2019-03-08T05:07:43.676Z,6.70
2019-03-08T05:10:17.176Z,6.70
2019-03-08T05:12:45.669Z,6.70
2019-03-08T05:15:15.189Z,6.60
2019-03-08T05:17:43.610Z,6.60
2019-03-08T05:20:12.152Z,6.60
2019-03-08T05:22:40.572Z,6.70
2019-03-08T05:25:10.793Z,6.70
2019-03-08T05:27:39.212Z,6.70
2019-03-08T05:30:10.733Z,6.80
2019-03-08T05:32:39.152Z,6.70
2019-03-08T05:35:08.797Z,6.70
2019-03-08T05:37:37.224Z,6.70
2019-03-08T05:40:08.712Z,6.70
2019-03-08T05:42:37.120Z,6.70
2019-03-08T05:45:07.881Z,6.70
2019-03-08T05:47:36.349Z,6.70
2019-03-08T05:50:07.575Z,6.70
2019-03-08T05:52:36.044Z,6.70
2019-03-08T05:55:06.844Z,6.80
2019-03-08T05:57:35.249Z,6.90
2019-03-08T06:00:05.711Z,6.80
2019-03-08T06:02:34.120Z,6.80
2019-03-08T06:05:02.533Z,6.80
2019-03-08T06:07:30.940Z,6.80
2019-03-08T06:09:59.353Z,6.80
2019-03-08T06:12:27.768Z,6.80
2019-03-08T06:14:56.189Z,6.90
2019-03-08T06:17:24.604Z,7.00
2019-03-08T06:19:53.085Z,7.00
2019-03-08T06:22:21.494Z,6.90
2019-03-08T06:24:50.382Z,7.00
2019-03-08T06:27:18.812Z,7.00
2019-03-08T06:29:47.237Z,7.00
2019-03-08T06:32:15.640Z,7.00
2019-03-08T06:34:44.069Z,7.10
2019-03-08T06:37:12.480Z,7.10
2019-03-08T06:39:40.898Z,7.00
2019-03-08T06:42:09.304Z,7.10
2019-03-08T06:44:37.717Z,7.00
2019-03-08T06:47:06.127Z,7.10
2019-03-08T06:49:34.539Z,7.10
2019-03-08T06:52:02.947Z,7.10
2019-03-08T06:54:31.364Z,7.10
2019-03-08T06:56:59.775Z,7.10
2019-03-08T06:59:29.838Z,7.10
2019-03-08T07:01:58.264Z,7.00
2019-03-08T07:04:26.695Z,7.10
2019-03-08T07:06:55.092Z,7.10
2019-03-08T07:09:23.513Z,7.00
2019-03-08T07:11:52.097Z,7.00
2019-03-08T07:14:20.520Z,7.10
2019-03-08T07:16:48.932Z,7.10
2019-03-08T07:19:17.357Z,7.00
2019-03-08T07:21:47.395Z,7.10
2019-03-08T07:24:29.556Z,7.10
2019-03-08T07:27:02.295Z,7.10
2019-03-08T07:29:32.343Z,7.10
2019-03-08T07:32:02.414Z,7.10
2019-03-08T07:34:32.467Z,7.10
2019-03-08T07:37:11.892Z,7.10
2019-03-08T07:43:00.645Z,7.10
2019-03-08T07:46:07.671Z,7.20
2019-03-08T07:54:52.858Z,7.30
2019-03-08T07:57:18.935Z,7.30
2019-03-08T08:00:05.004Z,7.30
2019-03-08T08:02:38.057Z,7.30
2019-03-08T08:05:15.406Z,7.40
2019-03-08T08:07:45.466Z,7.50
2019-03-08T08:10:21.617Z,7.60
2019-03-08T08:13:09.739Z,7.70
2019-03-08T08:15:42.442Z,8.10
2019-03-08T08:18:15.209Z,8.40
2019-03-08T08:20:45.290Z,8.80
2019-03-08T08:23:24.222Z,9.00
2019-03-08T08:25:54.297Z,9.00
2019-03-08T08:28:49.483Z,8.80
2019-03-08T08:31:21.651Z,8.70
2019-03-08T08:34:03.755Z,8.60
2019-03-08T08:36:49.851Z,8.50
2019-03-08T08:39:25.744Z,8.50
2019-03-08T08:42:12.044Z,8.50
2019-03-08T08:44:53.002Z,8.50
2019-03-08T08:47:38.999Z,8.40
2019-03-08T08:50:11.145Z,8.40
2019-03-08T08:52:50.122Z,8.40
2019-03-08T08:55:29.326Z,8.40
2019-03-08T08:58:15.386Z,8.40
2019-03-08T09:01:01.843Z,8.40
2019-03-08T09:03:37.585Z,8.30
2019-03-08T09:06:10.696Z,8.30
2019-03-08T09:08:49.922Z,8.40
2019-03-08T09:11:28.749Z,8.40
2019-03-08T09:13:58.808Z,8.40
2019-03-08T09:16:28.881Z,8.40
2019-03-08T09:18:58.958Z,8.40
2019-03-08T09:21:29.133Z,8.50
2019-03-08T09:24:02.190Z,8.50
2019-03-08T09:26:35.101Z,8.50
2019-03-08T09:29:21.418Z,8.50
2019-03-08T09:31:51.564Z,8.60
2019-03-08T09:34:21.649Z,8.60
2019-03-08T09:37:00.222Z,8.70
2019-03-08T09:39:39.106Z,8.80
2019-03-08T09:42:27.306Z,8.80
2019-03-08T09:44:57.546Z,8.90
2019-03-08T09:47:27.621Z,8.90
2019-03-08T09:49:57.747Z,8.90
2019-03-08T09:52:32.423Z,8.80
2019-03-08T09:55:02.403Z,8.80
2019-03-08T09:57:32.915Z,8.90
2019-03-08T10:06:29.967Z,9.00
2019-03-08T10:09:37.203Z,8.90
2019-03-08T10:12:44.166Z,9.00
2019-03-08T10:15:51.131Z,9.10
2019-03-08T10:18:58.192Z,9.20
2019-03-08T10:22:05.249Z,9.20
2019-03-08T10:28:20.800Z,9.30
2019-03-08T10:31:27.830Z,9.30
2019-03-08T10:34:34.790Z,9.30
2019-03-08T10:37:42.026Z,9.20
2019-03-08T10:40:48.980Z,9.10
2019-03-08T10:52:40.634Z,8.80
2019-03-08T10:55:47.663Z,8.60
2019-03-08T10:58:55.221Z,8.30
2019-03-08T11:04:47.062Z,7.90
2019-03-08T11:07:29.648Z,7.90
2019-03-08T11:10:29.760Z,7.80
2019-03-08T11:16:09.470Z,7.70
2019-03-08T11:18:52.527Z,7.60
2019-03-08T11:21:51.921Z,7.60
2019-03-08T11:24:37.719Z,7.50
2019-03-08T11:27:19.627Z,7.30
2019-03-08T11:30:21.753Z,7.40
2019-03-08T11:33:20.974Z,7.30
2019-03-08T11:39:13.053Z,7.20
2019-03-08T11:42:12.507Z,7.10
2019-03-08T11:45:12.173Z,7.10
2019-03-08T11:48:12.476Z,7.30
2019-03-08T11:51:00.181Z,7.30
2019-03-08T11:57:05.435Z,7.20
2019-03-08T12:00:12.397Z,7.20
2019-03-08T12:03:19.359Z,7.30
2019-03-08T12:06:06.971Z,7.20
2019-03-08T12:09:13.947Z,7.30
2019-03-08T12:15:22.505Z,7.70
2019-03-08T12:21:14.876Z,7.90
2019-03-08T12:26:55.119Z,8.00
2019-03-08T12:29:55.022Z,8.00
2019-03-08T12:32:54.564Z,8.00
2019-03-08T12:41:23.456Z,8.40
2019-03-08T12:44:22.852Z,8.50
2019-03-08T12:50:12.365Z,8.50
2019-03-08T12:53:12.702Z,8.50
2019-03-08T12:55:57.761Z,8.40
2019-03-08T12:58:57.850Z,8.20
2019-03-08T13:01:39.835Z,8.20
2019-03-08T13:04:25.203Z,8.50
2019-03-08T13:07:25.005Z,8.60
2019-03-08T13:09:53.468Z,8.60
2019-03-08T13:12:21.906Z,9.00
2019-03-08T13:15:02.346Z,9.10
2019-03-08T13:17:43.374Z,9.30
2019-03-08T13:20:51.866Z,9.30
2019-03-08T13:23:39.627Z,9.10
2019-03-08T13:26:27.397Z,8.90
2019-03-08T13:29:15.163Z,8.80
2019-03-08T13:32:02.952Z,9.00
2019-03-08T13:34:52.458Z,8.90
2019-03-08T13:37:40.230Z,8.80
2019-03-08T13:40:27.997Z,8.90
2019-03-08T13:43:15.747Z,9.00
2019-03-08T13:46:03.603Z,9.10
2019-03-08T13:48:51.373Z,9.00
2019-03-08T13:51:39.159Z,9.00
2019-03-08T13:54:07.575Z,9.10
2019-03-08T13:56:55.341Z,9.40
2019-03-08T13:59:43.113Z,9.50
2019-03-08T14:02:30.886Z,9.40
2019-03-08T14:05:18.643Z,9.70
2019-03-08T14:07:47.079Z,9.60
2019-03-08T14:10:34.866Z,9.80
2019-03-08T14:16:03.367Z,9.60
2019-03-08T14:18:44.402Z,9.60
2019-03-08T14:21:25.129Z,9.70
2019-03-08T14:23:53.549Z,9.80
2019-03-08T14:26:41.336Z,9.70
2019-03-08T14:29:09.771Z,9.50
2019-03-08T14:31:45.370Z,9.40
2019-03-08T14:34:16.704Z,9.20
2019-03-08T14:36:44.342Z,9.10
2019-03-08T14:39:13.010Z,9.30
2019-03-08T14:41:43.082Z,9.40
2019-03-08T14:44:22.803Z,9.60
2019-03-08T14:46:56.073Z,9.40
2019-03-08T14:49:24.308Z,9.00
2019-03-08T14:51:52.974Z,9.10
2019-03-08T14:54:21.665Z,9.30
2019-03-08T14:56:50.103Z,9.30
2019-03-08T14:59:18.518Z,9.30
2019-03-08T15:01:46.994Z,9.40
2019-03-08T15:04:15.462Z,9.40
2019-03-08T15:06:43.964Z,9.30
2019-03-08T15:09:13.326Z,9.00
2019-03-08T15:11:41.759Z,8.80
2019-03-08T15:14:10.210Z,8.60
2019-03-08T15:16:39.083Z,8.70
2019-03-08T15:19:08.418Z,8.50
2019-03-08T15:21:38.095Z,8.50
2019-03-08T15:24:07.234Z,8.40
2019-03-08T15:26:35.650Z,8.50
2019-03-08T15:29:04.083Z,8.40
2019-03-08T15:31:32.504Z,8.50
2019-03-08T15:34:00.936Z,8.40
2019-03-08T15:36:29.421Z,8.50
2019-03-08T15:38:58.852Z,8.50
2019-03-08T15:41:27.568Z,8.40
2019-03-08T15:43:56.007Z,8.40
2019-03-08T15:46:26.674Z,8.40
2019-03-08T15:48:54.927Z,8.50
2019-03-08T15:51:25.374Z,8.50
2019-03-08T15:53:54.405Z,8.50
2019-03-08T15:56:23.192Z,8.50
2019-03-08T15:58:51.606Z,8.50
2019-03-08T16:01:20.138Z,8.50
2019-03-08T16:03:48.574Z,8.40
2019-03-08T16:06:17.003Z,8.40
2019-03-08T16:08:45.430Z,8.40
2019-03-08T16:11:13.880Z,8.40
2019-03-08T16:13:42.292Z,8.40
2019-03-08T16:16:10.898Z,8.30
2019-03-08T16:18:40.113Z,8.20
2019-03-08T16:21:13.142Z,8.20
2019-03-08T16:23:39.627Z,8.30
2019-03-08T16:26:08.063Z,8.20
2019-03-08T16:28:36.670Z,8.30
2019-03-08T16:31:09.298Z,8.20
2019-03-08T16:33:42.139Z,8.30
2019-03-08T16:36:20.849Z,8.20
2019-03-08T16:39:00.037Z,8.20
2019-03-08T16:41:35.997Z,8.20
2019-03-08T16:44:08.830Z,8.20
2019-03-08T16:46:38.690Z,8.10
2019-03-08T16:49:08.531Z,8.10
2019-03-08T16:51:38.411Z,8.00
2019-03-08T16:54:08.259Z,8.00
2019-03-08T16:56:56.103Z,8.00
2019-03-08T16:59:28.854Z,8.00
2019-03-08T17:02:14.158Z,8.00
2019-03-08T17:04:44.213Z,8.00
2019-03-08T17:07:14.307Z,7.80
2019-03-08T17:09:44.363Z,7.80
2019-03-08T17:12:17.170Z,7.80
2019-03-08T17:14:50.244Z,7.80
2019-03-08T17:17:23.023Z,7.90
2019-03-08T17:20:05.279Z,7.80
2019-03-08T17:22:40.594Z,7.80
2019-03-08T17:25:12.112Z,7.80
2019-03-08T17:27:58.450Z,7.90
2019-03-08T17:30:28.586Z,8.00
2019-03-08T17:33:15.848Z,8.00
2019-03-08T17:35:53.368Z,7.90
2019-03-08T17:38:23.607Z,7.90
2019-03-08T17:41:10.390Z,7.90
2019-03-08T17:43:56.987Z,7.90
2019-03-08T17:46:43.523Z,7.90
2019-03-08T17:49:19.707Z,7.90
2019-03-08T17:52:01.955Z,8.00
2019-03-08T17:54:32.054Z,8.00
2019-03-08T17:57:04.803Z,8.00
2019-03-08T17:59:34.890Z,7.90
2019-03-08T18:02:19.922Z,7.90
2019-03-08T18:04:53.108Z,8.00
2019-03-08T18:07:31.714Z,8.00
2019-03-08T18:10:10.672Z,8.00
2019-03-08T18:12:40.727Z,8.00
2019-03-08T18:15:13.840Z,8.00
2019-03-08T18:17:52.915Z,8.10
2019-03-08T18:20:34.859Z,7.90
2019-03-08T18:23:04.996Z,7.70
2019-03-08T18:25:35.169Z,7.80
2019-03-08T18:28:08.501Z,7.90
2019-03-08T18:30:38.601Z,8.00
2019-03-08T18:33:11.677Z,7.90
2019-03-08T18:35:44.453Z,7.80
2019-03-08T18:38:14.534Z,7.90
2019-03-08T18:40:50.282Z,7.80
2019-03-08T18:43:32.825Z,7.80
2019-03-08T18:46:19.543Z,7.70
2019-03-08T18:49:05.630Z,7.60
2019-03-08T18:51:35.750Z,7.60
2019-03-08T18:54:15.022Z,7.50
2019-03-08T18:56:45.084Z,7.70
2019-03-08T18:59:20.707Z,7.60
2019-03-08T19:01:50.854Z,7.60
2019-03-08T19:04:36.990Z,7.60
2019-03-08T19:07:07.650Z,7.70
2019-03-08T19:09:46.646Z,7.70
2019-03-08T19:12:19.549Z,7.70
2019-03-08T19:14:58.762Z,7.70
2019-03-08T19:17:44.038Z,7.70
2019-03-08T19:20:19.967Z,7.70
2019-03-08T19:22:53.123Z,7.50
2019-03-08T19:25:32.370Z,7.50
2019-03-08T19:28:18.776Z,7.30
2019-03-08T19:31:01.332Z,7.10
2019-03-08T19:33:37.472Z,7.20
2019-03-08T19:36:08.527Z,7.10
2019-03-08T19:38:38.736Z,7.00
2019-03-08T19:41:11.775Z,7.00
2019-03-08T19:43:50.981Z,6.90
2019-03-08T19:46:37.364Z,6.90
2019-03-08T19:49:07.503Z,6.80
2019-03-08T19:51:47.036Z,6.80
2019-03-08T19:54:17.159Z,6.70
2019-03-08T19:57:02.437Z,6.70
2019-03-08T19:59:35.615Z,6.70
2019-03-08T20:02:11.815Z,6.50
2019-03-08T20:04:41.930Z,6.60
2019-03-08T20:07:30.339Z,6.60
2019-03-08T20:10:00.579Z,6.70
2019-03-08T20:12:30.739Z,6.80
2019-03-08T20:15:03.896Z,6.80
2019-03-08T20:17:34.074Z,6.60
2019-03-08T20:20:19.161Z,6.70
2019-03-08T20:22:51.977Z,6.60
2019-03-08T20:25:38.122Z,6.60
2019-03-08T20:28:08.338Z,6.70
2019-03-08T20:30:41.090Z,6.70
2019-03-08T20:33:14.170Z,6.80
2019-03-08T20:35:47.127Z,6.60
2019-03-08T20:38:33.663Z,6.50
2019-03-08T20:41:13.012Z,6.50
2019-03-08T20:43:43.124Z,6.60
2019-03-08T20:46:13.304Z,6.70
2019-03-08T20:48:41.806Z,6.60
2019-03-08T20:51:10.616Z,6.50
2019-03-08T20:53:40.128Z,6.50
2019-03-08T20:56:08.637Z,6.00
2019-03-08T20:58:37.251Z,6.00
2019-03-08T21:01:09.750Z,6.00
2019-03-08T21:03:38.584Z,6.00
2019-03-08T21:06:07.141Z,6.00
2019-03-08T21:08:35.695Z,6.00
2019-03-08T21:11:04.389Z,6.10
2019-03-08T21:13:32.921Z,6.10
2019-03-08T21:16:01.510Z,6.30
2019-03-08T21:18:30.066Z,6.00
2019-03-08T21:20:58.621Z,6.10
2019-03-08T21:23:27.078Z,6.00
2019-03-08T21:25:55.580Z,6.20
2019-03-08T21:28:24.119Z,6.10
2019-03-08T21:30:52.616Z,6.20
2019-03-08T21:33:21.244Z,6.20
2019-03-08T21:35:49.785Z,6.20
2019-03-08T21:38:18.286Z,6.30
2019-03-08T21:40:46.872Z,6.40
2019-03-08T21:43:15.399Z,6.50
2019-03-08T21:45:45.101Z,6.50
2019-03-08T21:48:13.656Z,6.30
2019-03-08T21:50:42.202Z,6.30
2019-03-08T21:53:10.735Z,6.30
2019-03-08T21:55:40.215Z,6.30
2019-03-08T21:58:09.186Z,6.30
2019-03-08T22:00:37.783Z,6.20
2019-03-08T22:03:10.238Z,6.10
2019-03-08T22:05:40.382Z,6.20
2019-03-08T22:08:17.015Z,6.20
2019-03-08T22:10:46.694Z,6.10
2019-03-08T22:13:15.177Z,6.00
2019-03-08T22:15:43.814Z,6.00
2019-03-08T22:18:12.258Z,6.10
2019-03-08T22:20:41.833Z,6.20
2019-03-08T22:23:10.342Z,6.30
2019-03-08T22:25:38.828Z,6.30
2019-03-08T22:28:07.441Z,6.30
2019-03-08T22:30:35.928Z,6.20
2019-03-08T22:33:04.615Z,6.20
2019-03-08T22:35:33.203Z,6.00
2019-03-08T22:38:01.772Z,6.10
2019-03-08T22:40:30.365Z,5.90
2019-03-08T22:42:58.901Z,6.00
2019-03-08T22:45:27.381Z,6.10
2019-03-08T22:47:55.868Z,6.20
2019-03-08T22:50:24.424Z,6.20
2019-03-08T22:52:52.952Z,6.20
2019-03-08T22:55:21.499Z,6.10
2019-03-08T22:57:49.956Z,6.10
2019-03-08T23:00:35.204Z,6.10
2019-03-08T23:03:04.786Z,6.00
2019-03-08T23:05:33.233Z,6.00
2019-03-08T23:08:01.791Z,5.90
2019-03-08T23:10:30.365Z,6.00
2019-03-08T23:12:59.231Z,6.00
2019-03-08T23:15:27.753Z,6.00
2019-03-08T23:17:56.314Z,6.00
2019-03-08T23:20:24.780Z,6.00
2019-03-08T23:22:53.347Z,6.00
2019-03-08T23:25:21.777Z,5.90
2019-03-08T23:27:57.663Z,5.90
2019-03-08T23:30:26.959Z,5.90
2019-03-08T23:32:55.445Z,5.90
2019-03-08T23:35:23.899Z,5.90
2019-03-08T23:37:52.370Z,6.00
2019-03-08T23:40:20.801Z,6.00
2019-03-08T23:42:49.339Z,6.00
2019-03-08T23:45:17.815Z,6.00
2019-03-08T23:47:46.326Z,6.00
2019-03-08T23:50:14.775Z,5.90
2019-03-08T23:52:43.515Z,6.00
2019-03-08T23:55:12.081Z,6.00
2019-03-08T23:57:40.551Z,6.00
